createdAt,value
2019-01-20T00:01:13.962Z,7.53
2019-01-20T00:03:43.413Z,6.40
2019-01-20T00:06:13.187Z,5.83
2019-01-20T00:08:42.349Z,7.20
2019-01-20T00:11:16.758Z,9.03
2019-01-20T00:13:46.072Z,10.80
2019-01-20T00:16:15.293Z,6.07
2019-01-20T00:18:44.620Z,9.30
2019-01-20T00:21:13.914Z,7.83
2019-01-20T00:23:47.519Z,7.67
2019-01-20T00:26:18.426Z,6.17
2019-01-20T00:28:50.610Z,12.80
2019-01-20T00:31:19.962Z,7.77
2019-01-20T00:33:49.396Z,7.93
2019-01-20T00:36:24.603Z,13.50
2019-01-20T00:38:54.260Z,8.23
2019-01-20T00:41:24.161Z,9.37
2019-01-20T00:43:54.900Z,10.33
2019-01-20T00:46:24.226Z,9.67
2019-01-20T00:48:53.482Z,10.33
2019-01-20T00:51:23.081Z,9.43
2019-01-20T00:53:54.862Z,11.53
2019-01-20T00:56:28.878Z,9.23
2019-01-20T00:59:01.188Z,10.13
2019-01-20T01:01:31.092Z,8.70
2019-01-20T01:04:00.526Z,9.90
2019-01-20T01:06:29.653Z,10.33
2019-01-20T01:09:00.297Z,10.40
2019-01-20T01:11:31.874Z,8.83
2019-01-20T01:14:00.778Z,7.50
2019-01-20T01:16:32.307Z,10.47
2019-01-20T01:19:03.755Z,8.57
2019-01-20T01:21:33.242Z,10.07
2019-01-20T01:24:05.891Z,11.63
2019-01-20T01:26:36.858Z,9.03
2019-01-20T01:29:06.712Z,8.47
2019-01-20T01:31:37.706Z,8.53
2019-01-20T01:34:07.323Z,10.90
2019-01-20T01:36:38.357Z,11.87
2019-01-20T01:39:11.963Z,10.53
2019-01-20T01:41:53.420Z,11.37
2019-01-20T01:44:31.396Z,14.57
2019-01-20T01:47:09.203Z,11.80
2019-01-20T01:49:44.517Z,12.53
2019-01-20T01:52:21.050Z,9.97
2019-01-20T01:54:56.988Z,11.33
2019-01-20T01:57:33.935Z,11.90
2019-01-20T02:00:15.569Z,11.30
2019-01-20T02:02:52.971Z,12.60
2019-01-20T02:05:37.302Z,13.57
2019-01-20T02:08:22.452Z,9.90
2019-01-20T02:10:57.273Z,9.30
2019-01-20T02:13:31.753Z,10.53
2019-01-20T02:16:04.431Z,10.97
2019-01-20T02:18:38.073Z,11.37
2019-01-20T02:21:07.993Z,15.90
2019-01-20T02:23:39.074Z,16.73
2019-01-20T02:26:08.231Z,13.07
2019-01-20T02:28:41.966Z,10.37
2019-01-20T02:31:18.070Z,9.67
2019-01-20T02:33:49.237Z,10.73
2019-01-20T02:36:20.123Z,12.23
2019-01-20T02:38:49.934Z,10.43
2019-01-20T02:41:19.026Z,8.13
2019-01-20T02:43:48.778Z,11.80
2019-01-20T02:46:18.552Z,9.17
2019-01-20T02:48:48.340Z,13.37
2019-01-20T02:51:17.687Z,12.37
2019-01-20T02:53:47.512Z,11.37
2019-01-20T02:56:17.013Z,14.87
2019-01-20T02:58:47.537Z,13.47
2019-01-20T03:01:21.249Z,14.17
2019-01-20T03:04:01.358Z,14.10
2019-01-20T03:06:35.488Z,11.20
2019-01-20T03:09:17.874Z,13.90
2019-01-20T03:12:03.555Z,13.80
2019-01-20T03:14:36.019Z,15.43
2019-01-20T03:17:12.297Z,12.00
2019-01-20T03:19:53.140Z,14.37
2019-01-20T03:22:31.292Z,15.33
2019-01-20T03:25:08.427Z,12.97
2019-01-20T03:27:43.747Z,15.63
2019-01-20T03:30:36.726Z,18.80
2019-01-20T03:33:29.542Z,15.50
2019-01-20T03:36:09.013Z,17.57
2019-01-20T03:38:49.118Z,11.70
2019-01-20T03:41:30.071Z,13.27
2019-01-20T03:44:15.310Z,12.50
2019-01-20T03:47:28.825Z,13.70
2019-01-20T03:50:22.153Z,16.23
2019-01-20T03:53:28.994Z,13.70
2019-01-20T03:56:37.422Z,17.57
2019-01-20T03:59:20.171Z,15.73
2019-01-20T04:02:04.046Z,12.40
2019-01-20T04:04:40.049Z,14.90
2019-01-20T04:07:19.258Z,14.00
2019-01-20T04:09:56.729Z,14.57
2019-01-20T04:12:34.275Z,15.43
2019-01-20T04:15:08.934Z,15.93
2019-01-20T04:17:41.646Z,12.90
2019-01-20T04:20:14.489Z,15.97
2019-01-20T04:22:47.046Z,14.10
2019-01-20T04:25:22.484Z,19.17
2019-01-20T04:27:55.462Z,12.60
2019-01-20T04:30:28.297Z,13.37
2019-01-20T04:33:06.528Z,14.50
2019-01-20T04:35:39.789Z,13.20
2019-01-20T04:38:12.467Z,11.83
2019-01-20T04:40:44.848Z,15.20
2019-01-20T04:43:19.243Z,12.97
2019-01-20T04:45:51.975Z,14.07
2019-01-20T04:48:29.251Z,12.67
2019-01-20T04:51:05.880Z,15.90
2019-01-20T04:53:44.218Z,12.33
2019-01-20T04:56:21.692Z,15.43
2019-01-20T04:58:55.831Z,16.53
2019-01-20T05:01:36.962Z,12.10
2019-01-20T05:04:19.836Z,13.57
2019-01-20T05:06:55.700Z,12.20
2019-01-20T05:09:35.566Z,13.83
2019-01-20T05:12:17.921Z,15.80
2019-01-20T05:14:59.596Z,13.47
2019-01-20T05:17:41.245Z,20.67
2019-01-20T05:20:24.885Z,14.67
2019-01-20T05:23:12.749Z,14.50
2019-01-20T05:26:00.481Z,15.43
2019-01-20T05:28:51.472Z,17.83
2019-01-20T05:31:34.104Z,19.30
2019-01-20T05:34:19.361Z,17.47
2019-01-20T05:36:59.210Z,15.47
2019-01-20T05:39:43.752Z,14.13
2019-01-20T05:42:24.971Z,15.67
2019-01-20T05:45:06.464Z,18.17
2019-01-20T05:47:43.637Z,20.00
2019-01-20T05:50:21.983Z,14.87
2019-01-20T05:52:59.425Z,16.27
2019-01-20T05:55:46.605Z,16.97
2019-01-20T05:58:26.591Z,16.43
2019-01-20T06:01:13.717Z,17.07
2019-01-20T06:03:58.564Z,15.17
2019-01-20T06:06:43.287Z,17.53
2019-01-20T06:09:25.390Z,17.20
2019-01-20T06:12:05.099Z,19.67
2019-01-20T06:14:46.143Z,19.60
2019-01-20T06:17:23.843Z,18.37
2019-01-20T06:20:06.067Z,18.03
2019-01-20T06:22:45.951Z,14.33
2019-01-20T06:25:31.231Z,17.53
2019-01-20T06:28:27.203Z,17.67
2019-01-20T06:31:17.865Z,21.70
2019-01-20T06:34:07.681Z,19.67
2019-01-20T06:37:00.805Z,17.70
2019-01-20T06:39:48.525Z,16.97
2019-01-20T06:42:36.576Z,17.90
2019-01-20T06:45:18.274Z,16.40
2019-01-20T06:47:55.099Z,16.43
2019-01-20T06:50:34.247Z,16.40
2019-01-20T06:53:12.535Z,16.70
2019-01-20T06:55:51.551Z,16.63
2019-01-20T06:58:32.233Z,17.40
2019-01-20T07:01:12.541Z,20.80
2019-01-20T07:03:52.360Z,16.10
2019-01-20T07:06:29.121Z,20.83
2019-01-20T07:09:08.522Z,18.00
2019-01-20T07:11:51.910Z,18.17
2019-01-20T07:14:31.622Z,16.83
2019-01-20T07:17:08.152Z,19.73
2019-01-20T07:19:51.642Z,19.60
2019-01-20T07:22:31.950Z,18.60
2019-01-20T07:25:14.028Z,20.17
2019-01-20T07:27:52.710Z,19.23
2019-01-20T07:30:33.675Z,20.23
2019-01-20T07:33:19.001Z,21.83
2019-01-20T07:35:59.864Z,18.03
2019-01-20T07:38:40.935Z,17.93
2019-01-20T07:41:22.498Z,17.40
2019-01-20T07:44:10.490Z,19.37
2019-01-20T07:46:56.728Z,20.60
2019-01-20T07:49:36.379Z,23.93
2019-01-20T07:52:19.571Z,19.50
2019-01-20T07:55:01.443Z,25.30
2019-01-20T07:57:40.330Z,23.33
2019-01-20T08:00:24.005Z,19.83
2019-01-20T08:02:57.362Z,27.30
2019-01-20T08:05:38.352Z,21.70
2019-01-20T08:08:27.539Z,22.63
2019-01-20T08:11:12.806Z,19.20
2019-01-20T08:13:57.672Z,19.93
2019-01-20T08:16:45.785Z,18.43
2019-01-20T08:19:29.200Z,20.77
2019-01-20T08:22:05.609Z,26.57
2019-01-20T08:24:44.227Z,18.20
2019-01-20T08:27:20.403Z,20.83
2019-01-20T08:29:56.227Z,24.87
2019-01-20T08:32:32.475Z,19.50
2019-01-20T08:35:13.815Z,23.13
2019-01-20T08:37:55.900Z,25.57
2019-01-20T08:43:51.075Z,20.43
2019-01-20T08:46:50.330Z,20.10
2019-01-20T08:49:28.627Z,21.10
2019-01-20T08:52:18.439Z,22.90
2019-01-20T08:55:15.484Z,20.47
2019-01-20T08:57:55.364Z,23.97
2019-01-20T09:00:35.664Z,20.77
2019-01-20T09:03:06.561Z,22.13
2019-01-20T09:05:39.037Z,19.07
2019-01-20T09:08:21.492Z,22.57
2019-01-20T09:10:58.096Z,20.80
2019-01-20T09:13:39.875Z,21.37
2019-01-20T09:16:14.469Z,27.47
2019-01-20T09:18:49.455Z,20.67
2019-01-20T09:21:51.980Z,20.03
2019-01-20T09:24:24.515Z,18.23
2019-01-20T09:27:06.696Z,21.00
2019-01-20T09:29:48.173Z,23.87
2019-01-20T09:33:06.289Z,23.97
2019-01-20T09:35:58.323Z,22.30
2019-01-20T09:38:34.618Z,21.30
2019-01-20T09:41:28.196Z,22.87
2019-01-20T09:44:10.014Z,20.00
2019-01-20T09:46:42.339Z,21.67
2019-01-20T09:49:30.120Z,22.33
2019-01-20T09:52:06.101Z,20.83
2019-01-20T09:54:37.701Z,21.00
2019-01-20T09:57:09.053Z,18.17
2019-01-20T09:59:46.010Z,19.70
2019-01-20T10:02:43.246Z,23.63
2019-01-20T10:05:18.098Z,22.53
2019-01-20T10:08:03.653Z,24.10
2019-01-20T10:10:38.098Z,23.70
2019-01-20T10:13:26.543Z,20.07
2019-01-20T10:16:10.340Z,19.10
2019-01-20T10:19:07.354Z,22.23
2019-01-20T10:21:39.803Z,20.57
2019-01-20T10:24:15.433Z,22.30
2019-01-20T10:26:50.239Z,20.80
2019-01-20T10:29:21.197Z,23.33
2019-01-20T10:32:00.759Z,22.73
2019-01-20T10:34:34.462Z,22.23
2019-01-20T10:37:06.541Z,23.50
2019-01-20T10:39:35.760Z,19.00
2019-01-20T10:42:05.276Z,18.40
2019-01-20T10:44:35.999Z,19.30
2019-01-20T10:47:06.118Z,21.37
2019-01-20T10:49:38.456Z,21.50
2019-01-20T10:52:09.702Z,21.33
2019-01-20T10:54:41.315Z,22.03
2019-01-20T10:57:20.190Z,20.43
2019-01-20T10:59:51.977Z,22.03
2019-01-20T11:02:25.191Z,19.33
2019-01-20T11:04:57.850Z,19.67
2019-01-20T11:07:45.960Z,23.97
2019-01-20T11:10:22.207Z,21.50
2019-01-20T11:12:55.135Z,21.93
2019-01-20T11:15:27.998Z,23.93
2019-01-20T11:18:00.161Z,19.53
2019-01-20T11:20:34.886Z,18.40
2019-01-20T11:23:03.995Z,17.67
2019-01-20T11:25:40.066Z,20.43
2019-01-20T11:28:09.573Z,19.30
2019-01-20T11:30:39.434Z,20.67
2019-01-20T11:33:09.014Z,22.33
2019-01-20T11:35:39.002Z,19.77
2019-01-20T11:38:09.409Z,23.07
2019-01-20T11:40:41.104Z,21.40
2019-01-20T11:43:10.553Z,20.50
2019-01-20T11:45:42.871Z,16.33
2019-01-20T11:48:12.615Z,24.70
2019-01-20T11:50:45.819Z,20.07
2019-01-20T11:53:19.777Z,20.50
2019-01-20T11:55:53.477Z,23.57
2019-01-20T11:58:22.191Z,21.40
2019-01-20T12:00:51.366Z,18.30
2019-01-20T12:03:31.156Z,19.03
2019-01-20T12:06:05.871Z,20.70
2019-01-20T12:08:36.969Z,18.43
2019-01-20T12:11:06.242Z,22.27
2019-01-20T12:13:39.967Z,23.23
